Time;durP1;ratioP1;P1;durP2;ratioP2;P2;SDS_P1;SDS_P2;PMS_P1;PMS_P2;Temp;Humidity;BMP_temperature;BMP_pressure;BME280_temperature;BME280_humidity;BME280_pressure;Samples;Min_cycle;Max_cycle;Signal;HPM_P1;HPM_P2
2022/10/18 00:02:24;;;;;;;0.70;0.70;;;;;;;11.27;100.00;101880.97;5083694;28;21565;-73
2022/10/18 00:04:51;;;;;;;1.02;1.00;;;;;;;11.27;100.00;101877.50;5084828;28;20206;-73
2022/10/18 00:07:19;;;;;;;0.80;0.80;;;;;;;11.20;100.00;101850.38;5084238;28;20226;-73
2022/10/18 00:09:46;;;;;;;0.60;0.60;;;;;;;11.18;100.00;101878.00;5086231;28;20194;-73
2022/10/18 00:12:13;;;;;;;0.70;0.70;;;;;;;10.95;100.00;101852.81;5084971;28;20195;-72
2022/10/18 00:14:39;;;;;;;0.90;0.90;;;;;;;11.09;100.00;101862.06;5084783;28;20205;-73
2022/10/18 00:17:06;;;;;;;0.73;0.73;;;;;;;11.08;100.00;101868.06;5085867;28;20201;-74
2022/10/18 00:19:33;;;;;;;0.80;0.80;;;;;;;11.00;100.00;101872.06;5084081;28;20233;-73
2022/10/18 00:22:00;;;;;;;0.80;0.80;;;;;;;10.95;100.00;101865.81;5088645;28;20639;-71
2022/10/18 00:24:28;;;;;;;0.80;0.80;;;;;;;11.03;100.00;101861.78;5087360;28;20707;-71
2022/10/18 00:26:54;;;;;;;0.90;0.90;;;;;;;10.92;100.00;101857.84;5084535;28;20214;-71
2022/10/18 00:29:21;;;;;;;0.88;0.88;;;;;;;11.01;100.00;101852.19;5084275;28;20201;-71
2022/10/18 00:31:48;;;;;;;0.77;0.77;;;;;;;10.98;100.00;101847.75;5084848;28;20198;-71
2022/10/18 00:34:16;;;;;;;0.70;0.70;;;;;;;11.15;100.00;101846.72;5083462;28;20202;-71
2022/10/18 00:36:44;;;;;;;0.80;0.80;;;;;;;11.13;100.00;101843.16;5083872;28;20205;-71
2022/10/18 00:39:16;;;;;;;0.75;0.75;;;;;;;10.97;100.00;101813.94;5084235;28;20662;-71
2022/10/18 00:41:45;;;;;;;0.70;0.70;;;;;;;11.12;100.00;101846.63;5085088;28;20201;-71
2022/10/18 00:44:49;;;;;;;0.80;0.80;;;;;;;11.13;100.00;101843.16;5084206;28;20209;-70
2022/10/18 00:47:17;;;;;;;0.80;0.80;;;;;;;11.01;100.00;101839.19;5082491;28;20217;-71
2022/10/18 00:49:48;;;;;;;0.77;0.77;;;;;;;10.98;100.00;101836.47;5086111;28;20297;-71
2022/10/18 00:52:19;;;;;;;0.80;0.80;;;;;;;10.90;100.00;101843.94;5089339;28;20190;-71
2022/10/18 00:54:48;;;;;;;0.80;0.80;;;;;;;10.86;100.00;101837.75;5085101;28;20190;-71
2022/10/18 00:57:17;;;;;;;0.90;0.90;;;;;;;10.80;100.00;101815.84;5083510;28;20210;-71
2022/10/18 00:59:46;;;;;;;0.80;0.80;;;;;;;10.84;100.00;101838.50;5083014;28;20240;-72
2022/10/18 01:02:13;;;;;;;0.80;0.80;;;;;;;10.72;100.00;101830.19;5085417;28;21113;-71
2022/10/18 01:04:40;;;;;;;0.70;0.70;;;;;;;10.63;100.00;101825.50;5040998;28;20186;-71
2022/10/18 01:07:15;;;;;;;0.70;0.70;;;;;;;10.80;100.00;101836.59;5048595;28;20741;-72
2022/10/18 01:09:47;;;;;;;0.70;0.70;;;;;;;10.70;100.00;101824.94;5091668;28;20204;-71
2022/10/18 01:12:24;;;;;;;0.80;0.80;;;;;;;10.67;100.00;101818.72;5083497;28;20206;-71
2022/10/18 01:15:00;;;;;;;0.80;0.80;;;;;;;10.67;100.00;101821.31;5083220;28;20656;-71
2022/10/18 01:17:35;;;;;;;0.80;0.80;;;;;;;10.63;100.00;101816.84;5086051;28;20654;-71
2022/10/18 01:20:46;;;;;;;0.70;0.70;;;;;;;10.60;100.00;101812.41;5084692;28;20217;-71
2022/10/18 01:23:22;;;;;;;0.80;0.80;;;;;;;10.47;100.00;101793.66;5044229;28;20203;-71
2022/10/18 01:25:56;;;;;;;0.80;0.80;;;;;;;10.56;100.00;101804.44;5040027;28;20217;-71
2022/10/18 01:28:49;;;;;;;0.80;0.80;;;;;;;10.62;100.00;101804.69;5040948;28;20903;-71
2022/10/18 01:31:22;;;;;;;0.70;0.70;;;;;;;10.56;100.00;101809.63;5039603;28;20712;-71
2022/10/18 01:33:53;;;;;;;0.80;0.80;;;;;;;10.46;100.00;101795.38;5040108;28;20330;-71
2022/10/18 01:36:25;;;;;;;0.80;0.80;;;;;;;10.44;100.00;101803.09;5040082;28;20188;-71
2022/10/18 01:38:55;;;;;;;0.80;0.80;;;;;;;10.31;100.00;101798.19;5007387;28;20191;-71
2022/10/18 01:41:25;;;;;;;0.80;0.80;;;;;;;10.29;100.00;101805.00;5040413;28;20664;-71
2022/10/18 01:43:57;;;;;;;0.63;0.63;;;;;;;10.33;100.00;101801.75;5039952;28;20203;-71
2022/10/18 01:46:26;;;;;;;0.70;0.70;;;;;;;10.29;100.00;101802.44;5039969;28;20230;-71
2022/10/18 01:48:55;;;;;;;0.70;0.70;;;;;;;10.05;100.00;101782.28;5013620;28;20814;-71
2022/10/18 01:51:25;;;;;;;0.77;0.77;;;;;;;10.18;100.00;101795.88;5044763;28;20208;-71
2022/10/18 01:53:52;;;;;;;0.80;0.80;;;;;;;10.05;100.00;101810.78;5001232;28;20199;-72
2022/10/18 01:56:27;;;;;;;0.70;0.70;;;;;;;10.07;100.00;101786.72;5040411;28;20938;-71
2022/10/18 01:59:03;;;;;;;0.83;0.83;;;;;;;10.12;100.00;101785.22;5042342;28;20210;-71
2022/10/18 02:01:41;;;;;;;0.90;0.90;;;;;;;10.17;100.00;101799.28;5077917;28;20673;-72
2022/10/18 02:04:20;;;;;;;1.00;1.00;;;;;;;10.19;100.00;101801.97;5087134;28;20780;-72
2022/10/18 02:06:52;;;;;;;0.70;0.70;;;;;;;10.07;100.00;101791.88;5069251;28;20221;-72
2022/10/18 02:09:26;;;;;;;0.70;0.70;;;;;;;9.50;100.00;101690.84;5087226;28;20202;-71
2022/10/18 02:11:55;;;;;;;0.70;0.70;;;;;;;10.03;100.00;101796.88;5087748;28;20213;-72
2022/10/18 02:14:24;;;;;;;0.80;0.80;;;;;;;9.81;100.00;101785.53;5086693;28;20255;-72
2022/10/18 02:16:55;;;;;;;0.80;0.80;;;;;;;9.76;100.00;101778.38;5089317;28;21530;-72
2022/10/18 02:19:27;;;;;;;0.70;0.70;;;;;;;9.73;100.00;101768.78;5087475;28;20276;-71
2022/10/18 02:21:55;;;;;;;0.80;0.80;;;;;;;9.67;100.00;101754.66;5093118;28;20573;-71
2022/10/18 02:24:26;;;;;;;0.70;0.70;;;;;;;9.78;100.00;101781.91;5076520;28;20203;-71
2022/10/18 02:26:53;;;;;;;1.30;1.30;;;;;;;9.73;100.00;101776.56;5073889;28;20222;-71
2022/10/18 02:29:20;;;;;;;0.70;0.70;;;;;;;9.77;100.00;101777.59;5074306;28;20191;-71
2022/10/18 02:31:49;;;;;;;0.80;0.80;;;;;;;9.86;100.00;101780.56;5073900;28;20574;-71
2022/10/18 02:34:22;;;;;;;0.93;0.93;;;;;;;9.86;100.00;101790.94;5080323;28;20209;-71
2022/10/18 02:36:52;;;;;;;0.70;0.70;;;;;;;9.61;100.00;101767.31;5086322;28;20210;-72
2022/10/18 02:39:23;;;;;;;0.70;0.70;;;;;;;9.45;100.00;101758.84;5044475;28;20198;-72
2022/10/18 02:41:50;;;;;;;0.70;0.70;;;;;;;9.45;100.00;101786.47;5085324;28;20200;-71
2022/10/18 02:44:17;;;;;;;0.70;0.70;;;;;;;9.41;100.00;101790.63;5086740;28;20685;-72
2022/10/18 02:46:44;;;;;;;1.30;1.30;;;;;;;9.42;100.00;101787.19;5084620;28;20230;-71
2022/10/18 02:49:11;;;;;;;0.70;0.70;;;;;;;9.41;100.00;101795.78;5086472;28;20217;-71
2022/10/18 02:51:40;;;;;;;0.80;0.80;;;;;;;9.47;100.00;101790.00;5092251;28;20221;-71
2022/10/18 02:54:07;;;;;;;1.30;1.30;;;;;;;9.41;100.00;101784.53;5087273;28;20198;-71
2022/10/18 02:56:34;;;;;;;0.70;0.70;;;;;;;9.24;100.00;101763.03;5085515;28;20670;-71
2022/10/18 02:59:02;;;;;;;0.90;0.90;;;;;;;9.34;100.00;101798.91;5086101;28;20213;-70
2022/10/18 03:01:29;;;;;;;0.80;0.80;;;;;;;9.06;100.00;101743.19;5085344;28;20251;-71
2022/10/18 03:03:56;;;;;;;0.70;0.70;;;;;;;9.32;100.00;101795.34;5085729;28;20206;-70
2022/10/18 03:06:22;;;;;;;0.73;0.73;;;;;;;9.41;100.00;101790.63;5085370;28;20440;-70
2022/10/18 03:08:50;;;;;;;0.90;0.90;;;;;;;9.63;100.00;101795.06;5085728;28;20217;-71
2022/10/18 03:11:17;;;;;;;0.60;0.60;;;;;;;9.47;100.00;101800.34;5084430;28;20282;-72
2022/10/18 03:13:44;;;;;;;0.70;0.70;;;;;;;9.42;100.00;101796.66;5085527;28;20191;-72
2022/10/18 03:16:11;;;;;;;0.73;0.73;;;;;;;9.37;100.00;101800.75;5087461;28;20198;-72
2022/10/18 03:18:38;;;;;;;0.68;0.68;;;;;;;9.74;100.00;101780.91;5087215;28;20448;-72
2022/10/18 03:21:06;;;;;;;0.80;0.80;;;;;;;9.78;100.00;101774.16;5088239;28;20709;-72
2022/10/18 03:23:33;;;;;;;0.70;0.70;;;;;;;9.67;100.00;101777.94;5086509;28;20200;-72
2022/10/18 03:26:01;;;;;;;0.80;0.80;;;;;;;9.64;100.00;101775.22;5086968;28;20663;-72
2022/10/18 03:28:28;;;;;;;0.80;0.80;;;;;;;9.53;100.00;101802.31;5084684;28;20636;-70
2022/10/18 03:31:00;;;;;;;0.70;0.70;;;;;;;9.69;100.00;101802.25;5085663;28;20216;-71
2022/10/18 03:33:27;;;;;;;0.70;0.70;;;;;;;9.47;100.00;101800.34;5087563;28;20230;-71
2022/10/18 03:35:53;;;;;;;0.70;0.70;;;;;;;9.38;100.00;101795.63;5048798;28;20194;-71
2022/10/18 03:38:20;;;;;;;0.70;0.70;;;;;;;9.29;100.00;101799.47;5078033;28;20198;-71
2022/10/18 03:40:47;;;;;;;0.70;0.70;;;;;;;9.15;100.00;101765.19;5082467;28;20206;-71
2022/10/18 03:43:15;;;;;;;0.60;0.60;;;;;;;9.41;100.00;101790.63;5063540;28;20212;-71
2022/10/18 03:45:42;;;;;;;0.90;0.90;;;;;;;9.26;100.00;101791.59;5083671;28;20275;-72
2022/10/18 03:48:09;;;;;;;0.70;0.70;;;;;;;9.03;100.00;101774.06;5081295;28;20230;-72
2022/10/18 03:50:35;;;;;;;0.80;0.80;;;;;;;9.06;100.00;101785.44;5041718;28;20202;-71
2022/10/18 03:53:02;;;;;;;0.80;0.80;;;;;;;9.02;100.00;101786.13;5042011;28;20210;-71
2022/10/18 03:55:29;;;;;;;0.83;0.83;;;;;;;8.98;100.00;101799.72;5085849;28;20673;-71
2022/10/18 03:57:56;;;;;;;0.80;0.80;;;;;;;8.94;100.00;101788.34;5085511;28;20673;-71
2022/10/18 04:00:24;;;;;;;0.80;0.80;;;;;;;9.04;100.00;101784.50;5065701;28;20190;-71
2022/10/18 04:02:51;;;;;;;0.70;0.70;;;;;;;8.93;100.00;101788.25;5084719;28;20213;-71
2022/10/18 04:05:18;;;;;;;0.80;0.80;;;;;;;8.72;100.00;101758.75;5085835;28;20194;-71
2022/10/18 04:07:44;;;;;;;0.80;0.80;;;;;;;8.92;100.00;101794.22;5084814;28;20225;-71
2022/10/18 04:10:11;;;;;;;0.80;0.80;;;;;;;8.94;100.00;101790.03;5084377;28;20205;-71
2022/10/18 04:12:38;;;;;;;1.03;1.03;;;;;;;8.92;100.00;101794.22;5084684;28;20202;-72
2022/10/18 04:15:05;;;;;;;1.13;1.13;;;;;;;8.99;100.00;101778.19;5084183;28;20690;-71
2022/10/18 04:17:34;;;;;;;0.80;0.80;;;;;;;9.02;100.00;101778.38;5053393;28;20209;-71
2022/10/18 04:20:00;;;;;;;0.73;0.73;;;;;;;8.95;100.00;101784.06;5090233;28;20753;-71
2022/10/18 04:22:27;;;;;;;0.80;0.80;;;;;;;9.06;100.00;101775.09;5087798;28;20626;-71
2022/10/18 04:24:55;;;;;;;0.80;0.80;;;;;;;8.54;100.00;101676.00;5084338;28;20201;-71
2022/10/18 04:27:22;;;;;;;1.10;1.10;;;;;;;9.08;100.00;101746.72;5083519;28;20663;-71
2022/10/18 04:29:49;;;;;;;0.80;0.80;;;;;;;9.18;100.00;101778.28;5084166;28;20198;-72
2022/10/18 04:32:16;;;;;;;0.90;0.90;;;;;;;9.04;100.00;101776.72;5084248;28;20866;-72
2022/10/18 04:34:44;;;;;;;0.80;0.80;;;;;;;9.10;100.00;101778.69;5084752;28;20613;-71
2022/10/18 04:37:11;;;;;;;0.90;0.90;;;;;;;8.99;100.00;101773.00;5083492;28;20203;-73
2022/10/18 04:39:38;;;;;;;0.83;0.83;;;;;;;8.95;100.00;101765.94;5083451;28;20202;-73
2022/10/18 04:42:05;;;;;;;0.80;0.80;;;;;;;9.13;100.00;101774.56;5084167;28;20202;-72
2022/10/18 04:44:31;;;;;;;0.70;0.70;;;;;;;9.01;100.00;101761.06;5048505;28;20661;-73
2022/10/18 04:46:58;;;;;;;0.90;0.90;;;;;;;9.08;100.00;101785.53;5041464;28;20195;-72
2022/10/18 04:49:25;;;;;;;1.00;1.00;;;;;;;9.03;100.00;101784.41;5085574;28;20198;-73
2022/10/18 04:51:53;;;;;;;1.77;1.67;;;;;;;9.16;100.00;101776.44;5090072;28;20190;-72
2022/10/18 04:54:20;;;;;;;0.80;0.80;;;;;;;9.11;100.00;101773.63;5079178;28;20569;-72
2022/10/18 04:56:47;;;;;;;0.80;0.80;;;;;;;9.14;100.00;101772.88;5083178;28;20704;-73
2022/10/18 04:59:13;;;;;;;0.90;0.90;;;;;;;9.24;100.00;101768.19;5084661;28;20322;-72
2022/10/18 05:01:40;;;;;;;1.63;1.53;;;;;;;9.28;100.00;101780.47;5083596;28;20190;-72
2022/10/18 05:04:07;;;;;;;0.80;0.80;;;;;;;9.37;100.00;101778.34;5084298;28;20198;-72
2022/10/18 05:06:34;;;;;;;0.80;0.80;;;;;;;9.51;100.00;101775.50;5063668;28;20194;-72
2022/10/18 05:09:02;;;;;;;0.80;0.80;;;;;;;9.74;100.00;101785.19;5082610;28;20233;-72
2022/10/18 05:11:29;;;;;;;1.13;1.13;;;;;;;9.63;100.00;101776.06;5082537;28;20970;-73
2022/10/18 05:13:55;;;;;;;0.80;0.80;;;;;;;9.68;100.00;101782.31;5082630;28;20198;-73
2022/10/18 05:16:22;;;;;;;0.80;0.80;;;;;;;9.77;100.00;101780.19;5086028;28;20194;-72
2022/10/18 05:18:49;;;;;;;0.70;0.70;;;;;;;9.71;100.00;101765.22;5082137;28;20304;-72
2022/10/18 05:21:16;;;;;;;0.80;0.80;;;;;;;9.87;100.00;101787.53;5083381;28;20198;-72
2022/10/18 05:23:43;;;;;;;0.70;0.70;;;;;;;9.92;100.00;101786.91;5074009;28;20211;-72
2022/10/18 05:26:11;;;;;;;0.80;0.80;;;;;;;10.17;100.00;101790.63;5084412;28;20572;-72
2022/10/18 05:28:38;;;;;;;0.80;0.80;;;;;;;10.13;100.00;101786.97;5087567;28;20538;-74
2022/10/18 05:31:06;;;;;;;0.80;0.80;;;;;;;10.30;100.00;101788.66;5086074;28;20198;-72
2022/10/18 05:33:34;;;;;;;0.60;0.60;;;;;;;10.29;100.00;101794.66;5087737;28;20228;-73
2022/10/18 05:36:01;;;;;;;0.80;0.80;;;;;;;10.25;100.00;101781.47;5085725;28;20198;-73
2022/10/18 05:38:29;;;;;;;0.90;0.90;;;;;;;10.35;100.00;101789.72;5089099;28;20194;-73
2022/10/18 05:40:56;;;;;;;0.70;0.70;;;;;;;10.29;100.00;101771.31;5031168;28;20227;-73
2022/10/18 05:43:28;;;;;;;0.70;0.70;;;;;;;10.60;100.00;101786.47;5077610;28;20215;-73
2022/10/18 05:45:55;;;;;;;0.70;0.70;;;;;;;10.38;100.00;101769.09;5070407;28;20285;-73
2022/10/18 05:48:22;;;;;;;0.70;0.70;;;;;;;10.61;100.00;101793.44;5076721;28;20240;-73
2022/10/18 05:50:48;;;;;;;1.02;1.02;;;;;;;10.24;100.00;101728.75;5057126;28;20694;-73
2022/10/18 05:53:15;;;;;;;0.80;0.80;;;;;;;10.69;100.00;101797.25;5061186;28;20593;-73
2022/10/18 05:55:42;;;;;;;0.80;0.80;;;;;;;10.63;100.00;101791.78;5064691;28;20631;-72
2022/10/18 05:58:09;;;;;;;0.90;0.90;;;;;;;10.28;100.00;101704.72;5069906;28;20219;-73
2022/10/18 06:00:37;;;;;;;0.80;0.80;;;;;;;11.10;100.00;101808.41;5069990;28;20199;-73
2022/10/18 06:03:04;;;;;;;2.13;2.03;;;;;;;11.06;100.00;101799.63;5069668;28;20647;-73
2022/10/18 06:05:31;;;;;;;0.80;0.80;;;;;;;11.04;100.00;101803.88;5069704;28;20675;-73
2022/10/18 06:07:57;;;;;;;0.80;0.80;;;;;;;11.06;100.00;101804.81;5069559;28;20709;-73
2022/10/18 06:10:25;;;;;;;0.80;0.80;;;;;;;10.69;100.00;101745.34;5050804;28;20687;-73
2022/10/18 06:12:52;;;;;;;0.70;0.70;;;;;;;10.77;100.00;101743.06;5069782;28;20205;-73
2022/10/18 06:15:19;;;;;;;1.98;1.88;;;;;;;11.33;100.00;101808.53;5070061;28;20206;-71
2022/10/18 06:17:47;;;;;;;0.77;0.77;;;;;;;11.52;100.00;101811.84;5069785;28;20242;-74
2022/10/18 06:20:14;;;;;;;0.80;0.80;;;;;;;11.51;100.00;101816.16;5050981;28;20199;-71
2022/10/18 06:22:41;;;;;;;0.90;0.90;;;;;;;11.58;100.00;101812.97;5069792;28;20199;-71
2022/10/18 06:25:08;;;;;;;0.60;0.60;;;;;;;11.77;100.00;101814.59;5069709;28;20195;-72
2022/10/18 06:27:35;;;;;;;1.35;1.35;;;;;;;11.70;100.00;101803.00;5069522;28;20252;-72
2022/10/18 06:30:02;;;;;;;0.70;0.70;;;;;;;11.90;100.00;101817.69;5069647;28;20210;-72
2022/10/18 06:32:29;;;;;;;0.80;0.80;;;;;;;12.04;100.00;101815.59;5069296;28;20195;-74
2022/10/18 06:34:57;;;;;;;0.85;0.85;;;;;;;12.25;100.00;101811.19;5069821;28;20222;-72
2022/10/18 06:37:23;;;;;;;0.80;0.80;;;;;;;12.24;100.00;101821.50;5050995;28;20650;-72
2022/10/18 06:39:50;;;;;;;0.70;0.70;;;;;;;12.33;100.00;101820.16;5050849;28;20187;-72
2022/10/18 06:42:17;;;;;;;0.70;0.70;;;;;;;12.34;100.00;101819.28;5069275;28;20198;-72
2022/10/18 06:44:44;;;;;;;0.77;0.77;;;;;;;12.47;100.00;101817.13;5069924;28;20203;-72
2022/10/18 06:47:10;;;;;;;0.70;0.70;;;;;;;12.50;100.00;101801.63;5072602;28;20685;-71
2022/10/18 06:49:37;;;;;;;1.25;1.25;;;;;;;12.68;100.00;101817.88;5072656;28;20732;-71
2022/10/18 06:52:06;;;;;;;0.70;0.70;;;;;;;12.87;100.00;101815.06;5072667;28;20698;-71
2022/10/18 06:54:33;;;;;;;0.90;0.90;;;;;;;12.85;100.00;101815.00;5072513;28;20198;-71
2022/10/18 06:57:01;;;;;;;0.70;0.70;;;;;;;12.84;100.00;101814.97;5053939;28;20679;-72
2022/10/18 06:59:28;;;;;;;0.85;0.85;;;;;;;12.82;100.00;101801.91;5072437;28;20203;-72
2022/10/18 07:01:56;;;;;;;1.02;1.02;;;;;;;12.85;100.00;101808.91;5072767;28;20643;-71
2022/10/18 07:04:22;;;;;;;0.70;0.70;;;;;;;12.97;100.00;101805.84;5072650;28;20198;-71
2022/10/18 07:06:49;;;;;;;0.70;0.70;;;;;;;12.85;100.00;101807.19;5072756;28;20191;-71
2022/10/18 07:09:17;;;;;;;0.80;0.80;;;;;;;12.81;100.00;101789.72;5072432;28;20231;-72
2022/10/18 07:11:44;;;;;;;1.27;1.27;;;;;;;12.95;100.00;101797.97;5072369;28;20654;-71
2022/10/18 07:14:11;;;;;;;0.80;0.80;;;;;;;12.99;100.00;101798.94;5053287;28;20763;-71
2022/10/18 07:16:37;;;;;;;0.80;0.80;;;;;;;13.10;100.00;101802.81;5053715;28;20199;-72
2022/10/18 07:19:04;;;;;;;0.70;0.70;;;;;;;13.04;100.00;101790.47;5072310;28;20243;-72
2022/10/18 07:21:31;;;;;;;0.73;0.73;;;;;;;12.95;100.00;101808.38;5072309;28;20260;-72
2022/10/18 07:23:58;;;;;;;0.70;0.70;;;;;;;12.96;100.00;101797.13;5072280;28;20277;-72
2022/10/18 07:26:28;;;;;;;1.80;1.00;;;;;;;13.29;100.00;101795.66;5053153;28;20202;-72
2022/10/18 07:28:57;;;;;;;0.82;0.82;;;;;;;13.38;100.00;101805.47;5053765;28;20309;-72
2022/10/18 07:31:25;;;;;;;0.70;0.70;;;;;;;13.38;100.00;101774.19;5053289;28;20712;-72
2022/10/18 07:33:52;;;;;;;1.08;1.08;;;;;;;13.69;100.00;101804.69;5072057;28;20198;-73
2022/10/18 07:36:20;;;;;;;0.70;0.70;;;;;;;13.57;100.00;101796.50;5071905;28;20198;-72
2022/10/18 07:38:46;;;;;;;0.70;0.70;;;;;;;13.52;100.00;101792.88;5071905;28;20610;-73
2022/10/18 07:41:14;;;;;;;0.90;0.90;;;;;;;13.62;100.00;101777.56;5052893;28;20202;-72
2022/10/18 07:43:44;;;;;;;0.95;0.95;;;;;;;13.88;100.00;101794.84;5072151;28;20198;-72
2022/10/18 07:46:12;;;;;;;0.70;0.70;;;;;;;13.93;100.00;101775.84;5071804;28;20198;-72
2022/10/18 07:48:39;;;;;;;1.13;1.13;;;;;;;13.78;100.00;101799.75;5069752;28;20223;-72
2022/10/18 07:51:06;;;;;;;0.70;0.70;;;;;;;13.97;100.00;101804.66;5071855;28;20198;-72
2022/10/18 07:53:34;;;;;;;1.85;1.75;;;;;;;13.99;100.00;101799.47;5071503;28;20203;-72
2022/10/18 07:56:02;;;;;;;1.73;1.63;;;;;;;14.17;98.15;101803.50;5071752;28;20246;-73
2022/10/18 07:58:30;;;;;;;0.70;0.70;;;;;;;14.26;96.75;101792.44;5071512;28;20207;-72
2022/10/18 08:01:02;;;;;;;0.70;0.70;;;;;;;14.26;97.06;101764.63;5071640;28;20197;-72
2022/10/18 08:03:29;;;;;;;0.70;0.70;;;;;;;14.47;96.56;101782.59;5071757;28;20230;-72
2022/10/18 08:05:55;;;;;;;0.80;0.80;;;;;;;14.49;95.38;101791.34;5071680;28;20201;-73
2022/10/18 08:08:23;;;;;;;0.70;0.70;;;;;;;14.58;95.04;101799.44;5071580;28;20234;-73
2022/10/18 08:10:50;;;;;;;0.70;0.70;;;;;;;14.67;93.15;101789.22;5071705;28;20195;-72
2022/10/18 08:13:17;;;;;;;1.00;1.00;;;;;;;14.79;93.04;101780.81;5071407;28;20264;-72
2022/10/18 08:15:44;;;;;;;0.90;0.90;;;;;;;14.78;92.25;101779.94;5071557;28;20195;-72
2022/10/18 08:18:13;;;;;;;0.90;0.90;;;;;;;14.50;91.41;101693.94;5070868;28;20233;-73
2022/10/18 08:20:43;;;;;;;1.02;1.02;;;;;;;15.18;90.28;101786.13;5071338;28;20628;-72
2022/10/18 08:23:10;;;;;;;0.70;0.70;;;;;;;15.16;90.53;101782.59;5071354;28;20206;-72
2022/10/18 08:25:36;;;;;;;0.70;0.70;;;;;;;15.32;90.89;101784.72;5071032;28;20198;-72
2022/10/18 08:28:04;;;;;;;0.70;0.70;;;;;;;15.50;90.19;101776.44;5071049;28;20622;-72
2022/10/18 08:30:30;;;;;;;1.55;1.45;;;;;;;15.62;89.67;101768.88;5052072;28;20678;-73
2022/10/18 08:32:57;;;;;;;0.70;0.70;;;;;;;15.49;87.80;101751.13;5070886;28;20626;-74
2022/10/18 08:35:25;;;;;;;1.02;1.02;;;;;;;15.84;89.07;101763.22;5067758;28;20202;-73
2022/10/18 08:37:52;;;;;;;1.45;1.17;;;;;;;15.75;88.16;101765.66;5062450;28;20198;-73
2022/10/18 08:40:19;;;;;;;0.65;0.65;;;;;;;15.96;87.88;101760.84;5070768;28;20670;-73
2022/10/18 08:43:07;;;;;;;0.70;0.70;;;;;;;16.38;86.09;101750.31;5070965;28;20625;-73
2022/10/18 08:45:38;;;;;;;0.82;0.82;;;;;;;16.34;85.95;101748.47;5058556;28;20202;-73
2022/10/18 08:48:07;;;;;;;0.80;0.80;;;;;;;16.30;84.75;101751.94;5052008;28;20207;-73
2022/10/18 08:50:37;;;;;;;1.05;1.05;;;;;;;16.42;85.25;101744.28;5070889;28;20211;-72
2022/10/18 08:53:15;;;;;;;0.80;0.80;;;;;;;16.63;85.25;101747.31;5070827;28;20260;-72
2022/10/18 08:55:45;;;;;;;0.70;0.70;;;;;;;16.54;82.80;101746.25;5063476;28;20689;-73
2022/10/18 08:58:17;;;;;;;0.60;0.60;;;;;;;16.72;81.23;101743.97;5064455;28;20199;-73
2022/10/18 09:00:50;;;;;;;0.70;0.70;;;;;;;16.67;80.23;101736.03;5070491;28;20207;-73
2022/10/18 09:03:30;;;;;;;0.70;0.70;;;;;;;16.92;78.75;101729.44;5067482;28;20195;-73
2022/10/18 09:06:09;;;;;;;0.73;0.73;;;;;;;16.99;75.21;101744.41;5070469;28;20199;-73
2022/10/18 09:09:11;;;;;;;0.60;0.60;;;;;;;17.16;71.92;101742.91;5069328;28;20230;-73
2022/10/18 09:11:51;;;;;;;0.80;0.80;;;;;;;17.20;72.22;101731.59;5058799;28;20606;-73
2022/10/18 09:14:48;;;;;;;0.60;0.60;;;;;;;17.23;71.05;101729.03;5034796;28;20203;-73
2022/10/18 09:17:25;;;;;;;0.60;0.60;;;;;;;17.10;72.88;101714.00;5033524;28;20230;-73
2022/10/18 09:20:06;;;;;;;0.70;0.70;;;;;;;17.43;73.63;101720.56;5048037;28;20214;-73
2022/10/18 09:22:46;;;;;;;0.85;0.85;;;;;;;17.79;75.54;101721.06;5044272;28;20674;-74
2022/10/18 09:25:18;;;;;;;0.60;0.60;;;;;;;17.95;72.55;101723.00;5027809;28;20212;-73
2022/10/18 09:27:52;;;;;;;0.70;0.70;;;;;;;17.99;72.40;101708.16;5046236;28;20203;-73
2022/10/18 09:30:41;;;;;;;0.65;0.65;;;;;;;18.20;70.60;101701.38;5036020;28;20767;-74
2022/10/18 09:33:28;;;;;;;0.60;0.60;;;;;;;18.33;70.01;101703.25;4982392;28;20207;-78
2022/10/18 09:35:57;;;;;;;0.60;0.60;;;;;;;18.30;75.74;101682.22;5043102;28;20211;-75
2022/10/18 09:38:30;;;;;;;1.10;1.10;;;;;;;18.38;68.92;101695.41;4994539;28;20598;-74
2022/10/18 09:41:02;;;;;;;0.60;0.60;;;;;;;18.41;68.30;101689.34;4995522;28;20204;-73
2022/10/18 09:43:42;;;;;;;0.60;0.60;;;;;;;18.46;68.39;101692.84;5047488;28;20191;-74
2022/10/18 09:46:09;;;;;;;0.68;0.68;;;;;;;18.48;68.65;101693.78;5046210;28;20753;-74
2022/10/18 09:48:45;;;;;;;0.60;0.60;;;;;;;18.66;67.72;101699.19;5027398;28;20265;-74
2022/10/18 09:51:20;;;;;;;0.60;0.60;;;;;;;18.65;67.50;101685.19;5042118;28;20230;-74
2022/10/18 09:53:59;;;;;;;0.80;0.80;;;;;;;18.84;68.49;101678.28;5054536;28;20641;-73
2022/10/18 09:56:30;;;;;;;0.70;0.70;;;;;;;18.32;66.75;101617.47;5069847;28;20206;-73
2022/10/18 09:58:57;;;;;;;0.65;0.65;;;;;;;18.53;65.75;101678.94;5070145;28;20205;-74
2022/10/18 10:01:26;;;;;;;0.82;0.82;;;;;;;18.12;65.20;101640.03;5069673;28;20203;-74
2022/10/18 10:03:53;;;;;;;0.60;0.60;;;;;;;18.32;65.65;101663.84;5072481;28;20202;-75
2022/10/18 10:06:25;;;;;;;0.60;0.60;;;;;;;18.29;64.36;101659.47;5063356;28;20199;-72
2022/10/18 10:09:01;;;;;;;0.70;0.70;;;;;;;18.67;63.82;101658.91;5049426;28;20737;-72
2022/10/18 10:11:32;;;;;;;0.70;0.70;;;;;;;18.46;63.05;101651.72;5063080;28;20198;-73
2022/10/18 10:14:08;;;;;;;0.60;0.60;;;;;;;18.68;60.77;101644.91;5037428;28;20199;-71
2022/10/18 10:16:43;;;;;;;0.68;0.68;;;;;;;18.55;60.83;101641.28;5051043;28;20233;-72
2022/10/18 10:19:18;;;;;;;0.60;0.60;;;;;;;18.37;60.59;101620.09;5056109;28;20222;-72
2022/10/18 10:21:45;;;;;;;0.70;0.70;;;;;;;18.61;61.24;101641.38;5073582;28;20641;-73
2022/10/18 10:24:22;;;;;;;0.80;0.80;;;;;;;19.00;58.37;101640.72;5073693;28;20199;-73
2022/10/18 10:26:49;;;;;;;0.90;0.90;;;;;;;18.83;57.97;101634.50;5073413;28;20616;-72
2022/10/18 10:29:48;;;;;;;0.70;0.70;;;;;;;18.99;57.82;101633.72;5073082;28;20712;-72
2022/10/18 10:32:17;;;;;;;0.70;0.70;;;;;;;18.73;56.87;101619.50;5073219;28;20207;-72
2022/10/18 10:34:44;;;;;;;1.08;1.08;;;;;;;18.70;57.19;101598.47;5073422;28;20203;-72
2022/10/18 10:37:25;;;;;;;0.70;0.70;;;;;;;19.20;57.01;101612.78;5073293;28;20629;-73
2022/10/18 10:40:09;;;;;;;0.70;0.70;;;;;;;19.20;56.40;101604.00;5064292;28;20211;-72
2022/10/18 10:42:48;;;;;;;0.73;0.73;;;;;;;18.94;57.71;101582.00;5070561;28;20213;-72
2022/10/18 10:45:15;;;;;;;0.60;0.60;;;;;;;19.21;55.91;101590.88;5060773;28;20203;-72
2022/10/18 10:47:42;;;;;;;1.65;1.45;;;;;;;19.23;55.89;101591.75;5059315;28;20575;-72
2022/10/18 10:50:11;;;;;;;0.70;0.70;;;;;;;19.38;55.37;101576.88;5072522;28;20214;-72
2022/10/18 10:52:42;;;;;;;0.60;0.60;;;;;;;19.08;55.25;101548.75;5087798;28;20621;-71
2022/10/18 10:55:19;;;;;;;0.60;0.60;;;;;;;19.51;53.67;101571.69;5072670;28;20195;-70
2022/10/18 10:57:48;;;;;;;0.60;0.60;;;;;;;19.47;55.39;101563.81;5073198;28;20289;-70
2022/10/18 11:00:35;;;;;;;0.70;0.70;;;;;;;19.65;52.52;101569.09;5072916;28;20210;-70
2022/10/18 11:03:07;;;;;;;0.70;0.70;;;;;;;19.50;53.05;101562.06;5072752;28;20191;-69
2022/10/18 11:05:43;;;;;;;0.60;0.60;;;;;;;19.43;52.50;101533.97;5072986;28;20213;-69
2022/10/18 11:08:11;;;;;;;0.70;0.70;;;;;;;19.57;51.79;101552.41;5072932;28;20199;-69
2022/10/18 11:10:54;;;;;;;0.60;0.60;;;;;;;19.70;50.48;101546.28;5072910;28;20636;-70
2022/10/18 11:13:28;;;;;;;0.80;0.80;;;;;;;19.63;50.79;101549.78;5072789;28;20240;-70
2022/10/18 11:16:00;;;;;;;0.75;0.75;;;;;;;19.67;51.28;101551.53;5072844;28;20191;-70
2022/10/18 11:18:32;;;;;;;0.65;0.65;;;;;;;19.80;50.97;101537.50;5072379;28;20674;-70
2022/10/18 11:21:06;;;;;;;0.70;0.70;;;;;;;19.67;51.33;101535.75;5072714;28;20195;-70
2022/10/18 11:23:35;;;;;;;0.60;0.60;;;;;;;19.48;51.15;101505.91;5072440;28;20682;-70
2022/10/18 11:26:29;;;;;;;0.60;0.60;;;;;;;19.94;50.34;101524.38;5072452;28;20340;-71
2022/10/18 11:29:16;;;;;;;0.60;0.60;;;;;;;19.71;49.59;101496.28;5072504;28;20202;-70
2022/10/18 11:31:49;;;;;;;0.70;0.70;;;;;;;19.56;50.35;101498.03;5071551;28;20199;-73
2022/10/18 11:34:29;;;;;;;0.77;0.77;;;;;;;19.85;50.30;101512.09;5067810;28;20198;-74
2022/10/18 11:37:09;;;;;;;0.60;0.60;;;;;;;19.72;50.91;101489.28;5072392;28;20686;-75